sensor_id;sensor_type;location;lat;lon;timestamp;P1;durP1;ratioP1;P2;durP2;ratioP2
21474;SDS011;10899;53.576;9.960;2022-07-06T00:02:03;2.20;;;2.00;;
21474;SDS011;10899;53.576;9.960;2022-07-06T00:04:29;3.95;;;2.03;;
21474;SDS011;10899;53.576;9.960;2022-07-06T00:06:56;2.47;;;2.28;;
21474;SDS011;10899;53.576;9.960;2022-07-06T00:09:22;2.17;;;1.98;;
21474;SDS011;10899;53.576;9.960;2022-07-06T00:11:49;2.72;;;2.00;;
21474;SDS011;10899;53.576;9.960;2022-07-06T00:14:18;2.40;;;2.15;;
21474;SDS011;10899;53.576;9.960;2022-07-06T00:17:04;3.88;;;2.13;;
21474;SDS011;10899;53.576;9.960;2022-07-06T00:19:31;2.55;;;2.08;;
21474;SDS011;10899;53.576;9.960;2022-07-06T00:21:57;2.38;;;1.98;;
21474;SDS011;10899;53.576;9.960;2022-07-06T00:24:24;1.98;;;1.80;;
21474;SDS011;10899;53.576;9.960;2022-07-06T00:26:51;2.40;;;1.95;;
21474;SDS011;10899;53.576;9.960;2022-07-06T00:29:17;1.90;;;1.65;;
21474;SDS011;10899;53.576;9.960;2022-07-06T00:31:44;1.80;;;1.70;;
21474;SDS011;10899;53.576;9.960;2022-07-06T00:34:12;2.08;;;1.88;;
21474;SDS011;10899;53.576;9.960;2022-07-06T00:36:39;2.83;;;2.08;;
21474;SDS011;10899;53.576;9.960;2022-07-06T00:39:06;2.10;;;1.60;;
21474;SDS011;10899;53.576;9.960;2022-07-06T00:41:32;2.25;;;2.05;;
21474;SDS011;10899;53.576;9.960;2022-07-06T00:43:59;2.05;;;1.85;;
21474;SDS011;10899;53.576;9.960;2022-07-06T00:46:27;2.95;;;1.73;;
21474;SDS011;10899;53.576;9.960;2022-07-06T00:48:54;2.05;;;1.85;;
21474;SDS011;10899;53.576;9.960;2022-07-06T00:51:22;1.70;;;1.60;;
21474;SDS011;10899;53.576;9.960;2022-07-06T00:53:51;1.95;;;1.73;;
21474;SDS011;10899;53.576;9.960;2022-07-06T00:56:18;2.20;;;1.80;;
21474;SDS011;10899;53.576;9.960;2022-07-06T00:58:45;2.10;;;1.92;;
21474;SDS011;10899;53.576;9.960;2022-07-06T01:01:12;2.00;;;1.80;;
21474;SDS011;10899;53.576;9.960;2022-07-06T01:03:38;4.03;;;1.75;;
21474;SDS011;10899;53.576;9.960;2022-07-06T01:06:05;1.92;;;1.73;;
21474;SDS011;10899;53.576;9.960;2022-07-06T01:08:31;2.28;;;2.00;;
21474;SDS011;10899;53.576;9.960;2022-07-06T01:10:58;1.60;;;1.50;;
21474;SDS011;10899;53.576;9.960;2022-07-06T01:13:25;1.73;;;1.63;;
21474;SDS011;10899;53.576;9.960;2022-07-06T01:15:52;1.65;;;1.55;;
21474;SDS011;10899;53.576;9.960;2022-07-06T01:18:19;1.73;;;1.63;;
21474;SDS011;10899;53.576;9.960;2022-07-06T01:20:46;1.63;;;1.52;;
21474;SDS011;10899;53.576;9.960;2022-07-06T01:23:12;1.88;;;1.70;;
21474;SDS011;10899;53.576;9.960;2022-07-06T01:25:39;1.85;;;1.40;;
21474;SDS011;10899;53.576;9.960;2022-07-06T01:28:06;2.25;;;2.00;;
21474;SDS011;10899;53.576;9.960;2022-07-06T01:30:32;1.92;;;1.73;;
21474;SDS011;10899;53.576;9.960;2022-07-06T01:32:59;1.80;;;1.70;;
21474;SDS011;10899;53.576;9.960;2022-07-06T01:35:25;1.55;;;1.40;;
21474;SDS011;10899;53.576;9.960;2022-07-06T01:37:52;1.60;;;1.50;;
21474;SDS011;10899;53.576;9.960;2022-07-06T01:40:19;1.65;;;1.55;;
21474;SDS011;10899;53.576;9.960;2022-07-06T01:42:45;2.08;;;1.80;;
21474;SDS011;10899;53.576;9.960;2022-07-06T01:45:12;1.67;;;1.58;;
21474;SDS011;10899;53.576;9.960;2022-07-06T01:47:38;2.08;;;1.40;;
21474;SDS011;10899;53.576;9.960;2022-07-06T01:50:06;1.60;;;1.50;;
21474;SDS011;10899;53.576;9.960;2022-07-06T01:52:34;1.98;;;1.70;;
21474;SDS011;10899;53.576;9.960;2022-07-06T01:55:00;1.80;;;1.70;;
21474;SDS011;10899;53.576;9.960;2022-07-06T01:57:27;1.83;;;1.67;;
21474;SDS011;10899;53.576;9.960;2022-07-06T01:59:53;2.00;;;1.80;;
21474;SDS011;10899;53.576;9.960;2022-07-06T02:02:20;1.70;;;1.60;;
21474;SDS011;10899;53.576;9.960;2022-07-06T02:04:47;2.63;;;1.65;;
21474;SDS011;10899;53.576;9.960;2022-07-06T02:07:16;1.50;;;1.40;;
21474;SDS011;10899;53.576;9.960;2022-07-06T02:09:42;1.40;;;1.30;;
21474;SDS011;10899;53.576;9.960;2022-07-06T02:12:09;1.70;;;1.60;;
21474;SDS011;10899;53.576;9.960;2022-07-06T02:14:35;1.48;;;1.38;;
21474;SDS011;10899;53.576;9.960;2022-07-06T02:17:02;1.60;;;1.50;;
21474;SDS011;10899;53.576;9.960;2022-07-06T02:19:28;1.60;;;1.50;;
21474;SDS011;10899;53.576;9.960;2022-07-06T02:21:55;1.50;;;1.40;;
21474;SDS011;10899;53.576;9.960;2022-07-06T02:24:24;1.55;;;1.45;;
21474;SDS011;10899;53.576;9.960;2022-07-06T02:26:50;1.60;;;1.50;;
21474;SDS011;10899;53.576;9.960;2022-07-06T02:29:17;1.80;;;1.70;;
21474;SDS011;10899;53.576;9.960;2022-07-06T02:31:45;1.73;;;1.40;;
21474;SDS011;10899;53.576;9.960;2022-07-06T02:34:11;1.48;;;1.38;;
21474;SDS011;10899;53.576;9.960;2022-07-06T02:36:38;1.70;;;1.60;;
21474;SDS011;10899;53.576;9.960;2022-07-06T02:39:04;1.42;;;1.33;;
21474;SDS011;10899;53.576;9.960;2022-07-06T02:41:31;1.67;;;1.45;;
21474;SDS011;10899;53.576;9.960;2022-07-06T02:43:57;1.20;;;1.10;;
21474;SDS011;10899;53.576;9.960;2022-07-06T02:46:24;1.30;;;1.20;;
21474;SDS011;10899;53.576;9.960;2022-07-06T02:48:50;1.60;;;1.38;;
21474;SDS011;10899;53.576;9.960;2022-07-06T02:51:17;1.40;;;1.30;;
21474;SDS011;10899;53.576;9.960;2022-07-06T02:53:43;2.05;;;1.35;;
21474;SDS011;10899;53.576;9.960;2022-07-06T02:56:10;1.70;;;1.60;;
21474;SDS011;10899;53.576;9.960;2022-07-06T02:58:36;1.60;;;1.50;;
21474;SDS011;10899;53.576;9.960;2022-07-06T03:01:03;1.38;;;1.15;;
21474;SDS011;10899;53.576;9.960;2022-07-06T03:03:30;1.80;;;1.23;;
21474;SDS011;10899;53.576;9.960;2022-07-06T03:05:56;1.67;;;1.58;;
21474;SDS011;10899;53.576;9.960;2022-07-06T03:08:23;1.85;;;1.40;;
21474;SDS011;10899;53.576;9.960;2022-07-06T03:10:49;1.05;;;1.05;;
21474;SDS011;10899;53.576;9.960;2022-07-06T03:13:16;1.75;;;1.50;;
21474;SDS011;10899;53.576;9.960;2022-07-06T03:15:42;1.30;;;1.20;;
21474;SDS011;10899;53.576;9.960;2022-07-06T03:18:09;1.50;;;1.40;;
21474;SDS011;10899;53.576;9.960;2022-07-06T03:20:36;1.20;;;1.10;;
21474;SDS011;10899;53.576;9.960;2022-07-06T03:23:02;1.42;;;1.33;;
21474;SDS011;10899;53.576;9.960;2022-07-06T03:25:29;1.50;;;1.40;;
21474;SDS011;10899;53.576;9.960;2022-07-06T03:27:57;1.70;;;1.52;;
21474;SDS011;10899;53.576;9.960;2022-07-06T03:30:24;1.42;;;1.33;;
21474;SDS011;10899;53.576;9.960;2022-07-06T03:32:50;1.40;;;1.30;;
21474;SDS011;10899;53.576;9.960;2022-07-06T03:35:17;1.77;;;1.38;;
21474;SDS011;10899;53.576;9.960;2022-07-06T03:37:44;1.88;;;1.50;;
21474;SDS011;10899;53.576;9.960;2022-07-06T03:40:11;1.60;;;1.50;;
21474;SDS011;10899;53.576;9.960;2022-07-06T03:42:37;1.38;;;1.27;;
21474;SDS011;10899;53.576;9.960;2022-07-06T03:45:04;1.38;;;1.27;;
21474;SDS011;10899;53.576;9.960;2022-07-06T03:47:31;1.50;;;1.40;;
21474;SDS011;10899;53.576;9.960;2022-07-06T03:49:58;1.20;;;1.10;;
21474;SDS011;10899;53.576;9.960;2022-07-06T03:52:25;1.33;;;1.25;;
21474;SDS011;10899;53.576;9.960;2022-07-06T03:54:51;1.25;;;1.15;;
21474;SDS011;10899;53.576;9.960;2022-07-06T03:57:18;1.23;;;1.13;;
21474;SDS011;10899;53.576;9.960;2022-07-06T03:59:44;1.55;;;1.42;;
21474;SDS011;10899;53.576;9.960;2022-07-06T04:02:11;1.40;;;1.30;;
21474;SDS011;10899;53.576;9.960;2022-07-06T04:04:38;1.52;;;1.42;;
21474;SDS011;10899;53.576;9.960;2022-07-06T04:07:04;2.05;;;1.35;;
21474;SDS011;10899;53.576;9.960;2022-07-06T04:09:31;1.70;;;1.60;;
21474;SDS011;10899;53.576;9.960;2022-07-06T04:11:57;1.50;;;1.40;;
21474;SDS011;10899;53.576;9.960;2022-07-06T04:14:24;1.83;;;1.25;;
21474;SDS011;10899;53.576;9.960;2022-07-06T04:16:52;1.40;;;1.30;;
21474;SDS011;10899;53.576;9.960;2022-07-06T04:19:19;1.38;;;1.27;;
21474;SDS011;10899;53.576;9.960;2022-07-06T04:21:45;1.45;;;1.35;;
21474;SDS011;10899;53.576;9.960;2022-07-06T04:24:12;1.45;;;1.35;;
21474;SDS011;10899;53.576;9.960;2022-07-06T04:26:38;1.48;;;1.38;;
21474;SDS011;10899;53.576;9.960;2022-07-06T04:29:05;1.20;;;1.10;;
21474;SDS011;10899;53.576;9.960;2022-07-06T04:31:31;1.58;;;1.35;;
21474;SDS011;10899;53.576;9.960;2022-07-06T04:33:58;1.30;;;1.20;;
21474;SDS011;10899;53.576;9.960;2022-07-06T04:36:24;1.50;;;1.40;;
21474;SDS011;10899;53.576;9.960;2022-07-06T04:38:51;1.77;;;1.42;;
21474;SDS011;10899;53.576;9.960;2022-07-06T04:41:20;1.40;;;1.30;;
21474;SDS011;10899;53.576;9.960;2022-07-06T04:43:46;1.50;;;1.40;;
21474;SDS011;10899;53.576;9.960;2022-07-06T04:46:13;1.65;;;1.40;;
21474;SDS011;10899;53.576;9.960;2022-07-06T04:48:43;1.30;;;1.20;;
21474;SDS011;10899;53.576;9.960;2022-07-06T04:51:09;1.58;;;1.48;;
21474;SDS011;10899;53.576;9.960;2022-07-06T04:53:36;1.40;;;1.30;;
21474;SDS011;10899;53.576;9.960;2022-07-06T04:56:02;1.65;;;1.55;;
21474;SDS011;10899;53.576;9.960;2022-07-06T04:58:29;1.55;;;1.45;;
21474;SDS011;10899;53.576;9.960;2022-07-06T05:00:55;1.00;;;1.00;;
21474;SDS011;10899;53.576;9.960;2022-07-06T05:03:22;1.60;;;1.50;;
21474;SDS011;10899;53.576;9.960;2022-07-06T05:05:49;1.50;;;1.40;;
21474;SDS011;10899;53.576;9.960;2022-07-06T05:08:15;1.85;;;1.70;;
21474;SDS011;10899;53.576;9.960;2022-07-06T05:10:42;1.50;;;1.40;;
21474;SDS011;10899;53.576;9.960;2022-07-06T05:13:08;1.35;;;1.23;;
21474;SDS011;10899;53.576;9.960;2022-07-06T05:15:35;1.88;;;1.77;;
21474;SDS011;10899;53.576;9.960;2022-07-06T05:18:01;1.50;;;1.38;;
21474;SDS011;10899;53.576;9.960;2022-07-06T05:20:28;1.45;;;1.35;;
21474;SDS011;10899;53.576;9.960;2022-07-06T05:22:54;1.95;;;1.42;;
21474;SDS011;10899;53.576;9.960;2022-07-06T05:25:21;1.35;;;1.25;;
21474;SDS011;10899;53.576;9.960;2022-07-06T05:27:48;1.40;;;1.30;;
21474;SDS011;10899;53.576;9.960;2022-07-06T05:30:14;1.50;;;1.40;;
21474;SDS011;10899;53.576;9.960;2022-07-06T05:32:41;1.40;;;1.30;;
21474;SDS011;10899;53.576;9.960;2022-07-06T05:35:07;1.30;;;1.20;;
21474;SDS011;10899;53.576;9.960;2022-07-06T05:37:34;1.73;;;1.30;;
21474;SDS011;10899;53.576;9.960;2022-07-06T05:40:01;1.67;;;1.58;;
21474;SDS011;10899;53.576;9.960;2022-07-06T05:42:28;1.60;;;1.50;;
21474;SDS011;10899;53.576;9.960;2022-07-06T05:44:55;1.40;;;1.30;;
21474;SDS011;10899;53.576;9.960;2022-07-06T05:47:22;1.50;;;1.40;;
21474;SDS011;10899;53.576;9.960;2022-07-06T05:50:07;1.33;;;1.20;;
21474;SDS011;10899;53.576;9.960;2022-07-06T05:52:55;1.52;;;1.42;;
21474;SDS011;10899;53.576;9.960;2022-07-06T05:55:21;1.40;;;1.30;;
21474;SDS011;10899;53.576;9.960;2022-07-06T05:57:48;1.45;;;1.35;;
21474;SDS011;10899;53.576;9.960;2022-07-06T06:00:15;1.48;;;1.38;;
21474;SDS011;10899;53.576;9.960;2022-07-06T06:02:42;1.58;;;1.48;;
21474;SDS011;10899;53.576;9.960;2022-07-06T06:05:10;1.80;;;1.40;;
21474;SDS011;10899;53.576;9.960;2022-07-06T06:07:37;1.50;;;1.40;;
21474;SDS011;10899;53.576;9.960;2022-07-06T06:10:04;1.60;;;1.50;;
21474;SDS011;10899;53.576;9.960;2022-07-06T06:12:31;1.33;;;1.23;;
21474;SDS011;10899;53.576;9.960;2022-07-06T06:14:58;1.45;;;1.35;;
21474;SDS011;10899;53.576;9.960;2022-07-06T06:17:25;1.40;;;1.30;;
21474;SDS011;10899;53.576;9.960;2022-07-06T06:19:51;1.40;;;1.30;;
21474;SDS011;10899;53.576;9.960;2022-07-06T06:22:18;1.73;;;1.63;;
21474;SDS011;10899;53.576;9.960;2022-07-06T06:24:44;1.58;;;1.48;;
21474;SDS011;10899;53.576;9.960;2022-07-06T06:27:11;1.38;;;1.30;;
21474;SDS011;10899;53.576;9.960;2022-07-06T06:29:38;1.52;;;1.42;;
21474;SDS011;10899;53.576;9.960;2022-07-06T06:32:06;1.40;;;1.30;;
21474;SDS011;10899;53.576;9.960;2022-07-06T06:34:33;1.40;;;1.30;;
21474;SDS011;10899;53.576;9.960;2022-07-06T06:36:59;1.20;;;1.20;;
21474;SDS011;10899;53.576;9.960;2022-07-06T06:39:27;1.50;;;1.40;;
21474;SDS011;10899;53.576;9.960;2022-07-06T06:41:53;1.55;;;1.45;;
21474;SDS011;10899;53.576;9.960;2022-07-06T06:44:20;1.35;;;1.25;;
21474;SDS011;10899;53.576;9.960;2022-07-06T06:46:50;1.92;;;1.35;;
21474;SDS011;10899;53.576;9.960;2022-07-06T06:49:17;1.30;;;1.20;;
21474;SDS011;10899;53.576;9.960;2022-07-06T06:51:44;1.45;;;1.35;;
21474;SDS011;10899;53.576;9.960;2022-07-06T06:54:11;1.40;;;1.30;;
21474;SDS011;10899;53.576;9.960;2022-07-06T06:56:37;1.45;;;1.35;;
21474;SDS011;10899;53.576;9.960;2022-07-06T06:59:04;1.77;;;1.63;;
21474;SDS011;10899;53.576;9.960;2022-07-06T07:01:30;1.70;;;1.60;;
21474;SDS011;10899;53.576;9.960;2022-07-06T07:03:58;1.33;;;1.23;;
21474;SDS011;10899;53.576;9.960;2022-07-06T07:06:24;1.42;;;1.33;;
21474;SDS011;10899;53.576;9.960;2022-07-06T07:08:51;1.50;;;1.40;;
21474;SDS011;10899;53.576;9.960;2022-07-06T07:11:17;1.48;;;1.38;;
21474;SDS011;10899;53.576;9.960;2022-07-06T07:13:44;1.67;;;1.30;;
21474;SDS011;10899;53.576;9.960;2022-07-06T07:16:10;1.20;;;1.10;;
21474;SDS011;10899;53.576;9.960;2022-07-06T07:18:37;1.40;;;1.25;;
21474;SDS011;10899;53.576;9.960;2022-07-06T07:21:03;1.38;;;1.27;;
21474;SDS011;10899;53.576;9.960;2022-07-06T07:23:30;1.50;;;1.40;;
21474;SDS011;10899;53.576;9.960;2022-07-06T07:25:57;1.40;;;1.30;;
21474;SDS011;10899;53.576;9.960;2022-07-06T07:28:23;1.40;;;1.30;;
21474;SDS011;10899;53.576;9.960;2022-07-06T07:30:50;1.40;;;1.30;;
21474;SDS011;10899;53.576;9.960;2022-07-06T07:33:16;1.45;;;1.20;;
21474;SDS011;10899;53.576;9.960;2022-07-06T07:35:43;1.38;;;1.27;;
21474;SDS011;10899;53.576;9.960;2022-07-06T07:38:09;1.40;;;1.30;;
21474;SDS011;10899;53.576;9.960;2022-07-06T07:40:36;1.50;;;1.40;;
21474;SDS011;10899;53.576;9.960;2022-07-06T07:43:03;1.42;;;1.33;;
21474;SDS011;10899;53.576;9.960;2022-07-06T07:45:29;1.60;;;1.50;;
21474;SDS011;10899;53.576;9.960;2022-07-06T07:47:56;1.30;;;1.20;;
21474;SDS011;10899;53.576;9.960;2022-07-06T07:50:22;1.20;;;1.10;;
21474;SDS011;10899;53.576;9.960;2022-07-06T07:52:49;1.40;;;1.30;;
21474;SDS011;10899;53.576;9.960;2022-07-06T07:55:15;1.50;;;1.40;;
21474;SDS011;10899;53.576;9.960;2022-07-06T07:57:42;1.40;;;1.30;;
21474;SDS011;10899;53.576;9.960;2022-07-06T08:00:09;1.30;;;1.20;;
21474;SDS011;10899;53.576;9.960;2022-07-06T08:02:35;1.40;;;1.30;;
21474;SDS011;10899;53.576;9.960;2022-07-06T08:05:02;1.20;;;1.17;;
21474;SDS011;10899;53.576;9.960;2022-07-06T08:07:29;1.40;;;1.30;;
21474;SDS011;10899;53.576;9.960;2022-07-06T08:09:56;1.20;;;1.10;;
21474;SDS011;10899;53.576;9.960;2022-07-06T08:12:22;1.40;;;1.30;;
21474;SDS011;10899;53.576;9.960;2022-07-06T08:14:49;1.40;;;1.30;;
21474;SDS011;10899;53.576;9.960;2022-07-06T08:17:15;1.38;;;1.20;;
21474;SDS011;10899;53.576;9.960;2022-07-06T08:19:42;1.10;;;1.10;;
21474;SDS011;10899;53.576;9.960;2022-07-06T08:22:08;1.60;;;1.50;;
21474;SDS011;10899;53.576;9.960;2022-07-06T08:24:35;1.27;;;1.17;;
21474;SDS011;10899;53.576;9.960;2022-07-06T08:27:02;1.25;;;1.15;;
21474;SDS011;10899;53.576;9.960;2022-07-06T08:29:29;1.40;;;1.02;;
21474;SDS011;10899;53.576;9.960;2022-07-06T08:31:56;1.30;;;1.20;;
21474;SDS011;10899;53.576;9.960;2022-07-06T08:34:23;1.48;;;1.38;;
21474;SDS011;10899;53.576;9.960;2022-07-06T08:36:49;1.17;;;1.05;;
21474;SDS011;10899;53.576;9.960;2022-07-06T08:39:16;1.40;;;1.30;;
21474;SDS011;10899;53.576;9.960;2022-07-06T08:41:43;1.30;;;1.20;;
21474;SDS011;10899;53.576;9.960;2022-07-06T08:44:13;1.30;;;1.20;;
21474;SDS011;10899;53.576;9.960;2022-07-06T08:46:40;1.50;;;1.40;;
21474;SDS011;10899;53.576;9.960;2022-07-06T08:49:07;1.73;;;0.90;;
21474;SDS011;10899;53.576;9.960;2022-07-06T08:51:34;1.65;;;1.48;;
21474;SDS011;10899;53.576;9.960;2022-07-06T08:54:02;1.23;;;1.13;;
21474;SDS011;10899;53.576;9.960;2022-07-06T08:56:29;1.30;;;1.20;;
21474;SDS011;10899;53.576;9.960;2022-07-06T08:58:56;1.00;;;1.00;;
21474;SDS011;10899;53.576;9.960;2022-07-06T09:01:22;1.17;;;1.10;;
21474;SDS011;10899;53.576;9.960;2022-07-06T09:03:50;1.00;;;1.00;;
21474;SDS011;10899;53.576;9.960;2022-07-06T09:06:17;1.02;;;1.02;;
21474;SDS011;10899;53.576;9.960;2022-07-06T09:08:46;1.33;;;1.23;;
21474;SDS011;10899;53.576;9.960;2022-07-06T09:11:13;1.08;;;1.08;;
21474;SDS011;10899;53.576;9.960;2022-07-06T09:13:40;0.90;;;0.90;;
21474;SDS011;10899;53.576;9.960;2022-07-06T09:16:10;1.20;;;1.10;;
21474;SDS011;10899;53.576;9.960;2022-07-06T09:18:37;1.20;;;1.10;;
21474;SDS011;10899;53.576;9.960;2022-07-06T09:21:05;1.30;;;1.17;;
21474;SDS011;10899;53.576;9.960;2022-07-06T09:23:32;1.17;;;1.10;;
21474;SDS011;10899;53.576;9.960;2022-07-06T09:26:01;1.20;;;1.10;;
21474;SDS011;10899;53.576;9.960;2022-07-06T09:28:44;1.20;;;1.10;;
21474;SDS011;10899;53.576;9.960;2022-07-06T09:31:10;1.45;;;1.20;;
21474;SDS011;10899;53.576;9.960;2022-07-06T09:33:37;1.25;;;1.15;;
21474;SDS011;10899;53.576;9.960;2022-07-06T09:36:05;1.23;;;1.13;;
21474;SDS011;10899;53.576;9.960;2022-07-06T09:38:31;0.90;;;0.90;;
21474;SDS011;10899;53.576;9.960;2022-07-06T09:40:58;2.25;;;1.10;;
21474;SDS011;10899;53.576;9.960;2022-07-06T09:43:27;1.30;;;1.20;;
21474;SDS011;10899;53.576;9.960;2022-07-06T09:45:54;1.17;;;1.08;;
21474;SDS011;10899;53.576;9.960;2022-07-06T09:48:22;1.25;;;1.17;;
21474;SDS011;10899;53.576;9.960;2022-07-06T09:50:50;0.88;;;0.88;;
21474;SDS011;10899;53.576;9.960;2022-07-06T09:53:18;1.20;;;1.10;;
21474;SDS011;10899;53.576;9.960;2022-07-06T09:55:46;1.10;;;1.10;;
21474;SDS011;10899;53.576;9.960;2022-07-06T09:58:13;1.17;;;1.02;;
21474;SDS011;10899;53.576;9.960;2022-07-06T10:00:40;1.10;;;1.00;;
21474;SDS011;10899;53.576;9.960;2022-07-06T10:03:07;1.10;;;1.00;;
21474;SDS011;10899;53.576;9.960;2022-07-06T10:05:37;0.98;;;0.93;;
21474;SDS011;10899;53.576;9.960;2022-07-06T10:08:04;0.90;;;0.90;;
21474;SDS011;10899;53.576;9.960;2022-07-06T10:10:34;1.17;;;1.08;;
21474;SDS011;10899;53.576;9.960;2022-07-06T10:13:01;1.40;;;1.30;;
21474;SDS011;10899;53.576;9.960;2022-07-06T10:15:29;1.00;;;1.00;;
21474;SDS011;10899;53.576;9.960;2022-07-06T10:18:03;1.35;;;1.25;;
21474;SDS011;10899;53.576;9.960;2022-07-06T10:20:30;0.90;;;0.90;;
21474;SDS011;10899;53.576;9.960;2022-07-06T10:23:00;1.10;;;1.00;;
21474;SDS011;10899;53.576;9.960;2022-07-06T10:25:27;1.10;;;1.00;;
21474;SDS011;10899;53.576;9.960;2022-07-06T10:27:54;1.20;;;1.10;;
21474;SDS011;10899;53.576;9.960;2022-07-06T10:30:22;1.13;;;1.13;;
21474;SDS011;10899;53.576;9.960;2022-07-06T10:32:49;1.20;;;1.10;;
21474;SDS011;10899;53.576;9.960;2022-07-06T10:35:17;1.10;;;1.10;;
21474;SDS011;10899;53.576;9.960;2022-07-06T10:37:45;0.93;;;0.93;;
21474;SDS011;10899;53.576;9.960;2022-07-06T10:40:13;0.90;;;0.90;;
21474;SDS011;10899;53.576;9.960;2022-07-06T10:42:59;1.00;;;1.00;;
21474;SDS011;10899;53.576;9.960;2022-07-06T10:53:14;1.20;;;1.10;;
21474;SDS011;10899;53.576;9.960;2022-07-06T10:55:42;0.90;;;0.90;;
21474;SDS011;10899;53.576;9.960;2022-07-06T10:58:09;0.90;;;0.90;;
21474;SDS011;10899;53.576;9.960;2022-07-06T11:00:49;1.02;;;1.00;;
21474;SDS011;10899;53.576;9.960;2022-07-06T11:03:31;0.95;;;0.95;;
21474;SDS011;10899;53.576;9.960;2022-07-06T11:05:59;0.85;;;0.85;;
21474;SDS011;10899;53.576;9.960;2022-07-06T11:21:48;1.35;;;1.23;;
21474;SDS011;10899;53.576;9.960;2022-07-06T11:24:21;0.82;;;0.82;;
21474;SDS011;10899;53.576;9.960;2022-07-06T11:26:48;0.82;;;0.82;;
21474;SDS011;10899;53.576;9.960;2022-07-06T11:29:15;0.90;;;0.90;;
21474;SDS011;10899;53.576;9.960;2022-07-06T11:31:45;0.93;;;0.93;;
21474;SDS011;10899;53.576;9.960;2022-07-06T11:34:12;0.90;;;0.90;;
21474;SDS011;10899;53.576;9.960;2022-07-06T11:36:42;0.80;;;0.80;;
21474;SDS011;10899;53.576;9.960;2022-07-06T11:39:08;0.95;;;0.93;;
21474;SDS011;10899;53.576;9.960;2022-07-06T11:41:35;1.00;;;0.90;;
21474;SDS011;10899;53.576;9.960;2022-07-06T11:44:02;1.20;;;1.10;;
21474;SDS011;10899;53.576;9.960;2022-07-06T11:46:32;0.88;;;0.88;;
21474;SDS011;10899;53.576;9.960;2022-07-06T11:51:27;1.17;;;1.08;;
21474;SDS011;10899;53.576;9.960;2022-07-06T11:53:56;0.90;;;0.90;;
21474;SDS011;10899;53.576;9.960;2022-07-06T11:56:25;0.70;;;0.70;;
21474;SDS011;10899;53.576;9.960;2022-07-06T11:58:56;0.90;;;0.90;;
21474;SDS011;10899;53.576;9.960;2022-07-06T12:01:24;0.80;;;0.80;;
21474;SDS011;10899;53.576;9.960;2022-07-06T12:03:51;1.10;;;0.98;;
21474;SDS011;10899;53.576;9.960;2022-07-06T12:06:22;1.00;;;0.90;;
21474;SDS011;10899;53.576;9.960;2022-07-06T12:08:50;0.80;;;0.80;;
21474;SDS011;10899;53.576;9.960;2022-07-06T12:11:21;0.90;;;0.90;;
21474;SDS011;10899;53.576;9.960;2022-07-06T12:13:48;0.80;;;0.80;;
21474;SDS011;10899;53.576;9.960;2022-07-06T12:16:15;0.93;;;0.93;;
21474;SDS011;10899;53.576;9.960;2022-07-06T12:18:45;0.85;;;0.85;;
21474;SDS011;10899;53.576;9.960;2022-07-06T12:21:13;0.88;;;0.82;;
21474;SDS011;10899;53.576;9.960;2022-07-06T12:23:42;0.95;;;0.95;;
21474;SDS011;10899;53.576;9.960;2022-07-06T12:26:09;0.80;;;0.80;;
21474;SDS011;10899;53.576;9.960;2022-07-06T12:28:36;0.80;;;0.80;;
21474;SDS011;10899;53.576;9.960;2022-07-06T12:31:03;0.80;;;0.80;;
21474;SDS011;10899;53.576;9.960;2022-07-06T12:33:30;0.90;;;0.90;;
21474;SDS011;10899;53.576;9.960;2022-07-06T12:35:56;0.80;;;0.80;;
21474;SDS011;10899;53.576;9.960;2022-07-06T12:38:26;0.88;;;0.88;;
21474;SDS011;10899;53.576;9.960;2022-07-06T12:40:55;0.90;;;0.90;;
21474;SDS011;10899;53.576;9.960;2022-07-06T12:43:40;0.90;;;0.90;;
21474;SDS011;10899;53.576;9.960;2022-07-06T12:48:52;0.93;;;0.88;;
21474;SDS011;10899;53.576;9.960;2022-07-06T12:51:19;0.73;;;0.73;;
21474;SDS011;10899;53.576;9.960;2022-07-06T12:53:46;0.70;;;0.70;;
21474;SDS011;10899;53.576;9.960;2022-07-06T12:56:13;0.95;;;0.90;;
21474;SDS011;10899;53.576;9.960;2022-07-06T12:58:53;0.80;;;0.80;;
21474;SDS011;10899;53.576;9.960;2022-07-06T13:01:19;0.70;;;0.70;;
21474;SDS011;10899;53.576;9.960;2022-07-06T13:03:46;0.80;;;0.80;;
21474;SDS011;10899;53.576;9.960;2022-07-06T13:06:13;0.80;;;0.80;;
21474;SDS011;10899;53.576;9.960;2022-07-06T13:08:39;0.80;;;0.80;;
21474;SDS011;10899;53.576;9.960;2022-07-06T13:11:06;0.80;;;0.80;;
21474;SDS011;10899;53.576;9.960;2022-07-06T13:13:32;0.82;;;0.82;;
21474;SDS011;10899;53.576;9.960;2022-07-06T13:16:08;1.50;;;0.90;;
21474;SDS011;10899;53.576;9.960;2022-07-06T13:18:35;0.70;;;0.70;;
21474;SDS011;10899;53.576;9.960;2022-07-06T13:21:01;0.80;;;0.80;;
21474;SDS011;10899;53.576;9.960;2022-07-06T13:23:28;0.63;;;0.63;;
21474;SDS011;10899;53.576;9.960;2022-07-06T13:25:55;0.70;;;0.70;;
21474;SDS011;10899;53.576;9.960;2022-07-06T13:28:21;0.80;;;0.80;;
21474;SDS011;10899;53.576;9.960;2022-07-06T13:30:48;0.93;;;0.80;;
21474;SDS011;10899;53.576;9.960;2022-07-06T13:33:14;0.80;;;0.80;;
21474;SDS011;10899;53.576;9.960;2022-07-06T13:35:41;0.82;;;0.82;;
21474;SDS011;10899;53.576;9.960;2022-07-06T13:38:08;0.90;;;0.90;;
21474;SDS011;10899;53.576;9.960;2022-07-06T13:40:34;0.73;;;0.73;;
21474;SDS011;10899;53.576;9.960;2022-07-06T13:43:01;0.80;;;0.80;;
21474;SDS011;10899;53.576;9.960;2022-07-06T13:45:27;0.95;;;0.90;;
21474;SDS011;10899;53.576;9.960;2022-07-06T13:47:54;1.02;;;0.80;;
21474;SDS011;10899;53.576;9.960;2022-07-06T13:50:21;0.80;;;0.80;;
21474;SDS011;10899;53.576;9.960;2022-07-06T13:52:47;0.85;;;0.85;;
21474;SDS011;10899;53.576;9.960;2022-07-06T13:55:14;0.80;;;0.80;;
21474;SDS011;10899;53.576;9.960;2022-07-06T13:57:40;0.82;;;0.70;;
21474;SDS011;10899;53.576;9.960;2022-07-06T14:00:08;1.00;;;0.80;;
21474;SDS011;10899;53.576;9.960;2022-07-06T14:02:35;0.77;;;0.77;;
21474;SDS011;10899;53.576;9.960;2022-07-06T14:05:01;0.80;;;0.80;;
21474;SDS011;10899;53.576;9.960;2022-07-06T14:07:28;0.75;;;0.75;;
21474;SDS011;10899;53.576;9.960;2022-07-06T14:09:54;0.80;;;0.80;;
21474;SDS011;10899;53.576;9.960;2022-07-06T14:12:21;0.73;;;0.73;;
21474;SDS011;10899;53.576;9.960;2022-07-06T14:14:49;0.70;;;0.70;;
21474;SDS011;10899;53.576;9.960;2022-07-06T14:17:16;0.70;;;0.70;;
21474;SDS011;10899;53.576;9.960;2022-07-06T14:19:43;0.70;;;0.70;;
21474;SDS011;10899;53.576;9.960;2022-07-06T14:22:09;1.02;;;1.00;;
21474;SDS011;10899;53.576;9.960;2022-07-06T14:24:36;1.17;;;0.95;;
21474;SDS011;10899;53.576;9.960;2022-07-06T14:27:02;0.82;;;0.77;;
21474;SDS011;10899;53.576;9.960;2022-07-06T14:29:29;0.80;;;0.80;;
21474;SDS011;10899;53.576;9.960;2022-07-06T14:31:55;0.80;;;0.80;;
21474;SDS011;10899;53.576;9.960;2022-07-06T14:34:22;0.90;;;0.90;;
21474;SDS011;10899;53.576;9.960;2022-07-06T14:36:49;0.68;;;0.68;;
21474;SDS011;10899;53.576;9.960;2022-07-06T14:39:16;0.80;;;0.80;;
21474;SDS011;10899;53.576;9.960;2022-07-06T14:41:42;0.70;;;0.70;;
21474;SDS011;10899;53.576;9.960;2022-07-06T14:44:09;0.70;;;0.70;;
21474;SDS011;10899;53.576;9.960;2022-07-06T14:46:35;0.65;;;0.65;;
21474;SDS011;10899;53.576;9.960;2022-07-06T14:49:02;0.70;;;0.70;;
21474;SDS011;10899;53.576;9.960;2022-07-06T14:51:29;0.82;;;0.75;;
21474;SDS011;10899;53.576;9.960;2022-07-06T14:53:55;1.08;;;0.85;;
21474;SDS011;10899;53.576;9.960;2022-07-06T14:56:22;0.90;;;0.90;;
21474;SDS011;10899;53.576;9.960;2022-07-06T14:58:48;1.20;;;1.00;;
21474;SDS011;10899;53.576;9.960;2022-07-06T15:01:15;0.90;;;0.90;;
21474;SDS011;10899;53.576;9.960;2022-07-06T15:03:41;0.80;;;0.80;;
21474;SDS011;10899;53.576;9.960;2022-07-06T15:06:08;0.90;;;0.90;;
21474;SDS011;10899;53.576;9.960;2022-07-06T15:08:34;0.93;;;0.73;;
21474;SDS011;10899;53.576;9.960;2022-07-06T15:11:01;0.95;;;0.95;;
21474;SDS011;10899;53.576;9.960;2022-07-06T15:13:27;0.80;;;0.80;;
21474;SDS011;10899;53.576;9.960;2022-07-06T15:15:54;0.80;;;0.80;;